ZLXY/XIY METAR and TAF weather

Enter ICAO airport designator
Station Type Date Time Source
ZLXY METAR 2019/04/25 08:00 UTC NOAA

ZLXY 250800Z 05008MPS 8000 NSC 31/14 Q1004 NOSIG


Station Type Date Time Source
ZLXY Decoded METAR 2019/04/25 08:00 UTC NOAA

Xian/Xianyang, China (ZLXY) 34-26N 108-45E
Apr 25, 2019 - 04:00 AM EDT / 2019.04.25 0800 UTC
Wind: from the NE (050 degrees) at 18 MPH (16 KT):0
Visibility: 4 mile(s):0
Temperature: 87 F (31 C)
Dew Point: 57 F (14 C)
Relative Humidity: 35%
Pressure (altimeter): 29.65 in. Hg (1004 hPa)
ob: ZLXY 250800Z 05008MPS 8000 NSC 31/14 Q1004 NOSIG
cycle: 8

Station Type Date Time Source
ZLXY TAF 2019/04/25 06:03 UTC NOAA

TAF ZLXY 250303Z 2506/2606 06004G10MPS 3000 HZ NSC TX32/2508Z TN14/2522Z

Example: see airport list